Time;durP1;ratioP1;P1;durP2;ratioP2;P2;SDS_P1;SDS_P2;PMS_P1;PMS_P2;Temp;Humidity;BMP_temperature;BMP_pressure;BME280_temperature;BME280_humidity;BME280_pressure;Samples;Min_cycle;Max_cycle;Signal;HPM_P1;HPM_P2
2021/11/01 00:01:23;;;;;;;7.90;1.65;;;;;;;13.98;62.04;99805.28;5049291;27;114065;-67
2021/11/01 00:03:51;;;;;;;9.70;1.85;;;;;;;13.97;62.11;99806.22;5048810;27;113771;-67
2021/11/01 00:06:18;;;;;;;5.75;1.33;;;;;;;13.95;62.13;99808.16;5049786;27;124035;-67
2021/11/01 00:08:45;;;;;;;8.15;1.70;;;;;;;13.94;62.11;99812.66;5046821;27;123813;-67
2021/11/01 00:11:12;;;;;;;4.60;1.30;;;;;;;13.93;62.12;99799.44;5048138;27;113516;-67
2021/11/01 00:13:39;;;;;;;8.57;1.58;;;;;;;13.92;61.99;99803.06;5049368;27;114233;-67
2021/11/01 00:16:06;;;;;;;5.72;1.52;;;;;;;13.91;61.90;99806.69;5048384;27;124767;-67
2021/11/01 00:18:34;;;;;;;7.28;1.70;;;;;;;13.90;61.98;99802.34;5048620;27;123593;-67
2021/11/01 00:21:02;;;;;;;7.78;1.67;;;;;;;13.88;61.94;99812.25;5046868;27;114421;-67
2021/11/01 00:23:29;;;;;;;8.02;1.63;;;;;;;13.87;62.01;99815.88;5047938;27;114529;-67
2021/11/01 00:25:57;;;;;;;8.73;1.50;;;;;;;13.85;61.77;99802.69;5050024;27;124018;-67
2021/11/01 00:28:24;;;;;;;5.00;1.45;;;;;;;13.85;62.12;99804.50;5049601;27;124680;-67
2021/11/01 00:30:53;;;;;;;4.45;1.40;;;;;;;13.82;61.91;99798.47;5048682;27;115355;-68
2021/11/01 00:33:20;;;;;;;5.38;1.38;;;;;;;13.81;61.86;99791.44;5034930;27;114059;-68
2021/11/01 00:35:49;;;;;;;7.75;1.50;;;;;;;13.80;61.88;99800.34;5046492;27;123786;-68
2021/11/01 00:38:17;;;;;;;9.15;1.60;;;;;;;13.78;61.80;99807.63;5043667;27;123959;-68
2021/11/01 00:40:44;;;;;;;6.05;1.63;;;;;;;13.77;61.82;99805.94;5048642;27;114709;-67
2021/11/01 00:43:11;;;;;;;6.18;1.20;;;;;;;13.75;61.78;99807.88;5048304;27;113873;-67
2021/11/01 00:45:38;;;;;;;6.78;1.33;;;;;;;13.72;61.76;99802.75;5049794;27;124003;-67
2021/11/01 00:48:06;;;;;;;7.25;1.70;;;;;;;13.70;61.73;99794.03;5048577;27;124452;-68
2021/11/01 00:50:34;;;;;;;7.55;1.40;;;;;;;13.69;61.80;99792.34;5047881;27;113463;-68
2021/11/01 00:53:02;;;;;;;3.80;1.42;;;;;;;13.67;61.69;99788.09;5052269;27;114106;-68
2021/11/01 00:56:12;;;;;;;5.93;2.00;;;;;;;13.65;61.67;99788.22;5041060;27;123179;-67
2021/11/01 00:58:21;;;;;;;4.40;1.48;;;;;;;13.61;61.66;99790.25;5046900;27;124586;-68
2021/11/01 01:00:49;;;;;;;7.93;1.50;;;;;;;13.60;61.81;99790.38;5046190;27;114599;-67
2021/11/01 01:03:18;;;;;;;7.57;1.38;;;;;;;13.57;61.75;99795.94;5051703;27;114017;-68
2021/11/01 01:05:46;;;;;;;4.22;1.40;;;;;;;13.54;61.51;99783.72;5045487;27;124369;-68
2021/11/01 01:08:16;;;;;;;7.25;1.60;;;;;;;13.52;61.50;99784.78;5047357;27;124455;-68
2021/11/01 01:10:48;;;;;;;7.90;1.60;;;;;;;13.49;61.77;99779.69;5049805;27;113539;-67
2021/11/01 01:13:18;;;;;;;7.45;1.55;;;;;;;13.47;61.67;99776.28;5044202;27;115159;-68
2021/11/01 01:16:03;;;;;;;4.85;1.05;;;;;;;13.46;61.71;99785.22;5045508;27;123993;-68
2021/11/01 01:18:35;;;;;;;;;;;;;;;13.40;61.68;99782.06;5050197;27;124179;-68
2021/11/01 01:23:52;;;;;;;5.13;1.40;;;;;;;13.35;61.79;99773.56;5046997;27;115154;-67
2021/11/01 01:26:19;;;;;;;5.07;1.35;;;;;;;13.34;61.78;99771.88;5044136;27;124366;-67
2021/11/01 01:28:47;;;;;;;6.85;1.42;;;;;;;13.34;61.84;99766.56;5047401;27;123434;-67
2021/11/01 01:31:14;;;;;;;4.82;1.40;;;;;;;13.34;61.77;99773.69;5048134;27;113184;-67
2021/11/01 01:33:42;;;;;;;5.47;1.50;;;;;;;13.32;61.65;99773.81;5050837;27;114159;-67
2021/11/01 01:36:09;;;;;;;8.00;1.30;;;;;;;13.31;61.77;99766.78;5050503;27;124159;-67
2021/11/01 01:38:38;;;;;;;5.60;1.20;;;;;;;13.31;61.82;99761.47;5046210;27;123680;-67
2021/11/01 01:41:15;;;;;;;5.88;1.20;;;;;;;13.31;61.72;99755.31;5048547;27;114263;-67
2021/11/01 01:43:48;;;;;;;5.63;1.15;;;;;;;13.29;61.75;99752.72;5046221;27;114597;-67
2021/11/01 01:46:16;;;;;;;7.53;1.30;;;;;;;13.27;61.86;99744.00;5050107;27;124220;-67
2021/11/01 01:48:43;;;;;;;4.85;1.30;;;;;;;13.26;61.82;99747.66;5051432;27;123960;-67
2021/11/01 01:51:13;;;;;;;5.20;1.20;;;;;;;13.26;61.91;99752.97;5047853;27;114965;-67
2021/11/01 01:53:40;;;;;;;5.93;1.40;;;;;;;13.24;62.04;99749.53;5049149;27;114632;-67
2021/11/01 01:56:08;;;;;;;6.15;1.20;;;;;;;13.24;61.80;99754.84;5048805;27;122944;-67
2021/11/01 01:58:49;;;;;;;5.70;1.08;;;;;;;13.22;61.98;99756.78;5051035;27;124617;-67
2021/11/01 02:01:18;;;;;;;5.78;1.30;;;;;;;13.22;62.03;99756.78;5052381;27;114393;-67
2021/11/01 02:03:52;;;;;;;4.68;1.40;;;;;;;13.21;61.96;99765.75;5054666;27;113169;-67
2021/11/01 02:06:41;;;;;;;5.72;1.13;;;;;;;13.20;62.00;99753.41;5049308;27;124042;-67
2021/11/01 02:09:15;;;;;;;4.50;1.00;;;;;;;13.21;61.97;99747.13;5046152;27;124548;-67
2021/11/01 02:12:05;;;;;;;4.70;1.08;;;;;;;13.20;61.97;99737.44;5052425;27;114211;-67
2021/11/01 02:14:50;;;;;;;5.15;1.15;;;;;;;13.20;61.95;99732.13;5049281;27;114943;-67
2021/11/01 02:17:21;;;;;;;4.43;1.23;;;;;;;13.20;62.00;99716.16;5053390;27;124056;-67
2021/11/01 02:19:52;;;;;;;6.60;1.25;;;;;;;13.19;61.87;99720.66;5047684;27;124564;-67
2021/11/01 02:22:34;;;;;;;2.65;0.93;;;;;;;13.19;61.97;99730.44;5044709;27;114056;-67
2021/11/01 02:25:32;;;;;;;3.97;1.00;;;;;;;13.18;62.14;99715.44;5049097;27;113902;-67
2021/11/01 02:27:59;;;;;;;5.30;0.88;;;;;;;13.18;62.11;99718.09;5042816;27;124072;-67
2021/11/01 02:30:27;;;;;;;4.60;1.00;;;;;;;13.18;61.97;99707.47;5050932;27;124185;-68
2021/11/01 02:32:55;;;;;;;4.50;1.27;;;;;;;13.18;62.03;99703.00;5053348;27;114120;-67
2021/11/01 02:35:22;;;;;;;6.03;1.05;;;;;;;13.19;61.97;99714.50;5051843;27;114647;-67
2021/11/01 02:37:51;;;;;;;6.05;1.10;;;;;;;13.19;62.09;99698.53;5050400;27;123970;-67
2021/11/01 02:40:18;;;;;;;6.40;1.40;;;;;;;13.19;62.02;99709.19;5050786;27;123103;-68
2021/11/01 02:42:46;;;;;;;5.53;1.10;;;;;;;13.18;61.73;99708.31;5053341;27;113092;-68
2021/11/01 02:45:13;;;;;;;7.25;1.10;;;;;;;13.17;62.00;99705.78;5050363;27;113798;-68
2021/11/01 02:47:40;;;;;;;4.93;1.20;;;;;;;13.17;61.75;99700.47;5048435;27;124046;-67
2021/11/01 02:50:11;;;;;;;4.53;1.30;;;;;;;13.16;61.99;99704.06;5047176;27;123688;-67
2021/11/01 02:52:38;;;;;;;6.22;1.42;;;;;;;13.16;62.08;99709.38;5051951;27;114538;-68
2021/11/01 02:55:08;;;;;;;7.47;1.83;;;;;;;13.15;62.01;99707.72;5050379;27;114655;-68
2021/11/01 02:57:36;;;;;;;4.57;1.33;;;;;;;13.14;61.99;99703.34;5045649;27;124171;-67
2021/11/01 03:00:05;;;;;;;4.43;1.20;;;;;;;13.14;61.87;99711.31;5044433;27;123887;-68
2021/11/01 03:02:34;;;;;;;7.93;1.50;;;;;;;13.13;61.93;99715.78;5052279;27;115216;-68
2021/11/01 03:05:12;;;;;;;5.18;1.30;;;;;;;13.11;62.27;99714.19;5051398;27;115857;-67
2021/11/01 03:07:41;;;;;;;5.20;1.33;;;;;;;13.10;62.10;99709.84;5045191;27;124249;-67
2021/11/01 03:10:10;;;;;;;3.22;1.30;;;;;;;13.09;62.14;99713.47;5046620;27;123780;-67
2021/11/01 03:12:43;;;;;;;7.65;1.27;;;;;;;13.09;62.10;99713.47;5044888;27;115228;-67
2021/11/01 03:15:19;;;;;;;6.75;1.33;;;;;;;13.08;62.08;99717.94;5047613;27;113202;-68
2021/11/01 03:17:52;;;;;;;5.88;1.20;;;;;;;13.07;62.22;99710.06;5050403;27;124281;-67
2021/11/01 03:20:30;;;;;;;7.03;1.20;;;;;;;13.05;62.29;99713.69;5047414;27;124391;-68
2021/11/01 03:23:04;;;;;;;4.90;1.20;;;;;;;13.04;62.25;99706.69;5053335;27;114686;-67
2021/11/01 03:26:02;;;;;;;6.38;1.25;;;;;;;13.05;62.24;99708.38;5049951;27;114315;-67
2021/11/01 03:28:32;;;;;;;3.55;1.10;;;;;;;13.05;62.31;99713.69;5045179;27;125224;-67
2021/11/01 03:31:04;;;;;;;6.35;1.23;;;;;;;13.07;62.22;99723.34;5047632;27;124017;-67
2021/11/01 03:33:37;;;;;;;5.18;1.10;;;;;;;13.04;62.38;99717.31;5047477;27;113178;-67
2021/11/01 03:36:06;;;;;;;4.93;1.20;;;;;;;13.03;62.44;99720.94;5052239;27;113754;-67
2021/11/01 03:38:37;;;;;;;6.57;1.10;;;;;;;13.04;62.39;99727.09;5048550;27;123932;-68
2021/11/01 03:41:11;;;;;;;4.07;1.13;;;;;;;13.02;62.36;99719.22;5044563;27;124431;-67
2021/11/01 03:43:49;;;;;;;7.82;1.33;;;;;;;13.03;62.34;99731.56;5050819;27;114235;-67
2021/11/01 03:46:20;;;;;;;5.55;1.30;;;;;;;13.04;62.46;99733.25;5047406;27;114376;-67
2021/11/01 03:48:48;;;;;;;4.10;1.08;;;;;;;13.03;62.33;99726.25;5053124;27;124352;-67
2021/11/01 03:54:01;;;;;;;6.35;1.50;;;;;;;13.02;62.27;99724.53;5044439;27;115732;-68
2021/11/01 03:56:30;;;;;;;5.90;1.15;;;;;;;13.02;62.47;99729.88;5050818;27;114893;-67
2021/11/01 03:58:57;;;;;;;3.45;1.75;;;;;;;13.01;62.42;99733.47;5050641;27;123946;-67
2021/11/01 04:01:28;;;;;;;5.50;1.48;;;;;;;13.01;62.40;99732.63;5044753;27;125232;-67
2021/11/01 04:03:55;;;;;;;5.35;1.42;;;;;;;13.01;62.26;99741.44;5044681;27;114086;-67
2021/11/01 04:06:23;;;;;;;7.72;1.75;;;;;;;13.02;62.23;99745.81;5047360;27;114608;-67
2021/11/01 04:08:50;;;;;;;3.33;1.45;;;;;;;13.02;62.28;99740.50;5047438;27;124069;-67
2021/11/01 04:11:17;;;;;;;4.35;1.27;;;;;;;13.01;62.28;99744.09;5050120;27;124089;-67
2021/11/01 04:13:45;;;;;;;7.88;1.50;;;;;;;13.00;62.18;99730.94;5048540;27;114604;-67
2021/11/01 04:16:16;;;;;;;4.75;1.30;;;;;;;12.98;62.14;99733.72;5041802;27;114172;-67
2021/11/01 04:18:59;;;;;;;5.75;1.23;;;;;;;12.98;62.22;99733.72;5050776;27;124286;-67
2021/11/01 04:21:28;;;;;;;6.70;1.45;;;;;;;12.97;62.28;99742.63;5049573;27;123972;-67
2021/11/01 04:23:58;;;;;;;4.05;1.40;;;;;;;12.96;62.18;99735.63;5042898;27;114686;-67
2021/11/01 04:26:25;;;;;;;7.25;1.50;;;;;;;12.96;62.32;99748.06;5047443;27;114229;-67
2021/11/01 04:28:53;;;;;;;5.80;1.40;;;;;;;12.94;62.27;99742.88;5048217;27;124254;-67
2021/11/01 04:31:32;;;;;;;7.28;1.30;;;;;;;12.93;62.27;99743.81;5033938;27;123539;-67
2021/11/01 04:34:10;;;;;;;5.38;1.40;;;;;;;12.91;62.11;99737.78;5047604;27;114542;-67
2021/11/01 04:36:38;;;;;;;5.53;1.20;;;;;;;12.91;62.16;99744.91;5040582;27;113893;-68
2021/11/01 04:39:20;;;;;;;7.75;1.38;;;;;;;12.89;62.11;99744.16;5043927;27;124282;-67
2021/11/01 04:53:14;;;;;;;6.10;1.17;;;;;;;12.83;62.03;99737.50;5044302;27;124466;-67
2021/11/01 04:55:42;;;;;;;5.80;1.50;;;;;;;12.83;62.28;99740.16;5045943;27;114439;-67
2021/11/01 04:58:10;;;;;;;8.93;1.80;;;;;;;12.82;62.30;99733.13;5045503;27;113984;-67
2021/11/01 05:00:38;;;;;;;3.72;1.20;;;;;;;12.79;62.37;99730.66;5049363;27;123877;-68
2021/11/01 05:03:12;;;;;;;6.20;1.55;;;;;;;12.80;62.30;99735.03;5046559;27;124841;-68
2021/11/01 05:05:39;;;;;;;5.53;1.50;;;;;;;12.80;62.32;99729.72;5042960;27;114947;-68
2021/11/01 05:08:07;;;;;;;5.68;1.30;;;;;;;12.80;62.38;99733.22;5046568;27;113729;-67
2021/11/01 05:10:40;;;;;;;4.68;1.45;;;;;;;12.81;62.29;99736.75;5044936;27;124023;-67
2021/11/01 05:13:14;;;;;;;6.05;1.40;;;;;;;12.81;62.24;99726.13;5043722;27;125033;-67
2021/11/01 05:15:56;;;;;;;5.20;1.30;;;;;;;12.81;62.37;99715.50;5050031;27;114775;-67
2021/11/01 05:20:59;;;;;;;5.15;1.08;;;;;;;12.81;62.42;99704.88;5049828;27;122907;-67
2021/11/01 05:23:52;;;;;;;4.18;1.13;;;;;;;12.83;62.20;99713.56;5047381;27;124036;-68
2021/11/01 05:26:23;;;;;;;5.75;1.15;;;;;;;12.82;62.23;99701.22;5050486;27;113360;-67
2021/11/01 05:28:59;;;;;;;7.55;1.60;;;;;;;12.81;62.33;99700.41;5043598;27;113980;-67
2021/11/01 05:31:28;;;;;;;7.85;1.20;;;;;;;12.82;62.27;99706.56;5041636;27;124198;-67
2021/11/01 05:34:08;;;;;;;7.13;1.50;;;;;;;12.81;62.05;99702.22;5045174;27;123828;-67
2021/11/01 05:36:36;;;;;;;4.10;1.10;;;;;;;12.82;62.13;99703.91;5040154;27;115255;-67
2021/11/01 05:39:04;;;;;;;9.48;1.73;;;;;;;12.82;62.22;99703.91;5046085;27;114791;-67
2021/11/01 05:41:31;;;;;;;6.35;1.50;;;;;;;12.81;62.13;99703.06;5047049;27;124707;-67
2021/11/01 05:43:59;;;;;;;5.75;1.30;;;;;;;12.82;61.94;99711.88;5048367;27;124085;-67
2021/11/01 05:46:33;;;;;;;5.43;1.23;;;;;;;12.81;62.01;99710.19;5046279;27;114075;-67
2021/11/01 05:49:04;;;;;;;7.97;1.27;;;;;;;12.81;62.09;99720.81;5051528;27;113935;-67
2021/11/01 05:51:33;;;;;;;14.20;1.50;;;;;;;12.80;61.96;99713.78;5048663;27;124148;-67
2021/11/01 05:54:06;;;;;;;7.95;1.25;;;;;;;12.80;62.14;99708.47;5048985;27;124683;-67
2021/11/01 05:56:48;;;;;;;7.10;1.30;;;;;;;12.81;62.06;99718.16;5044926;27;114697;-67
2021/11/01 05:59:39;;;;;;;5.50;1.13;;;;;;;12.81;61.98;99720.81;5048906;27;114110;-67
2021/11/01 06:09:58;;;;;;;4.28;1.10;;;;;;;12.79;61.96;99749.28;5043403;27;113787;-67
2021/11/01 06:15:11;;;;;;;;;;;;;;;12.75;62.07;99747.81;5035510;27;124605;-67
2021/11/01 06:17:40;;;;;;;5.55;1.15;;;;;;;12.76;61.98;99749.50;5051184;27;114962;-67
2021/11/01 06:20:08;;;;;;;8.00;1.40;;;;;;;12.74;61.98;99746.97;5048176;27;114153;-67
2021/11/01 06:22:35;;;;;;;7.72;1.65;;;;;;;12.74;62.05;99746.13;5044101;27;124404;-67
2021/11/01 06:25:07;;;;;;;6.00;1.30;;;;;;;12.74;62.08;99756.75;5043823;27;124515;-68
2021/11/01 06:27:36;;;;;;;5.15;1.25;;;;;;;12.75;62.21;99769.06;5046521;27;115370;-66
2021/11/01 06:30:13;;;;;;;6.57;1.15;;;;;;;12.76;62.11;99776.09;5026046;27;113803;-67
2021/11/01 06:32:58;;;;;;;6.90;1.25;;;;;;;12.76;62.15;99776.09;5032068;27;122786;-67
2021/11/01 06:43:55;;;;;;;9.18;1.45;;;;;;;12.77;62.02;99783.06;5065407;27;123007;-68
2021/11/01 06:54:52;;;;;;;7.50;1.20;;;;;;;12.82;62.14;99796.91;5045198;27;123984;-67
2021/11/01 06:57:28;;;;;;;4.78;1.10;;;;;;;12.83;62.00;99804.75;5042533;27;123935;-67
2021/11/01 07:21:52;;;;;;;5.72;1.73;;;;;;;12.93;62.00;99820.91;5047748;27;115806;-67
2021/11/01 08:46:32;;;;;;;8.35;1.20;;;;;;;14.02;60.87;99841.34;5042224;27;124313;-67
2021/11/01 08:49:15;;;;;;;4.15;1.08;;;;;;;14.06;60.86;99842.81;5049644;27;114184;-66
2021/11/01 08:52:07;;;;;;;3.90;1.00;;;;;;;14.11;60.82;99834.47;5042409;27;114674;-67
2021/11/01 09:06:04;;;;;;;3.83;0.90;;;;;;;14.28;60.72;99844.69;5036539;27;123988;-67
2021/11/01 09:27:05;;;;;;;3.40;0.85;;;;;;;14.78;59.91;99817.75;5037913;27;124430;-67
2021/11/01 09:43:14;;;;;;;4.57;1.05;;;;;;;15.09;59.04;99820.66;5043515;27;114071;-67
2021/11/01 09:45:42;;;;;;;5.60;1.02;;;;;;;15.16;59.09;99827.19;5030854;27;112930;-67
2021/11/01 09:48:10;;;;;;;2.92;0.93;;;;;;;15.22;59.13;99832.03;5035813;27;123893;-67
2021/11/01 09:50:41;;;;;;;5.28;1.13;;;;;;;15.28;58.67;99834.19;5048120;27;124034;-66
2021/11/01 09:53:16;;;;;;;5.97;1.17;;;;;;;15.32;58.64;99838.31;5045151;27;114114;-66
2021/11/01 10:01:11;;;;;;;5.35;1.10;;;;;;;15.44;58.21;99851.63;5035450;27;124041;-66
2021/11/01 10:03:41;;;;;;;3.05;0.80;;;;;;;15.48;58.31;99847.72;5040473;27;115062;-66
2021/11/01 10:06:15;;;;;;;7.03;1.15;;;;;;;15.54;58.12;99857.94;5048558;27;114948;-66
2021/11/01 10:08:56;;;;;;;3.15;0.90;;;;;;;15.57;58.16;99863.00;5047303;27;124237;-66
2021/11/01 10:11:29;;;;;;;4.38;1.08;;;;;;;15.61;57.85;99856.44;5037779;27;124293;-66
2021/11/01 10:13:59;;;;;;;6.88;1.05;;;;;;;15.64;57.74;99869.53;5042829;27;114238;-66
2021/11/01 10:19:36;;;;;;;5.40;1.10;;;;;;;15.75;57.97;99866.88;5045850;27;124336;-66
2021/11/01 10:22:11;;;;;;;4.43;0.90;;;;;;;15.84;57.94;99869.72;5035617;27;124477;-65
2021/11/01 10:24:41;;;;;;;4.60;1.00;;;;;;;15.90;57.68;99858.56;5036425;27;114533;-65
2021/11/01 10:27:13;;;;;;;3.00;0.88;;;;;;;15.95;57.55;99856.34;5051521;27;114341;-65
2021/11/01 10:30:03;;;;;;;3.83;1.23;;;;;;;15.95;57.28;99851.00;5035774;27;124358;-65
2021/11/01 10:32:44;;;;;;;3.85;0.90;;;;;;;15.98;57.00;99856.09;5046067;27;123761;-65
2021/11/01 10:35:17;;;;;;;1.75;0.85;;;;;;;15.99;56.86;99855.09;5050718;27;113432;-65
2021/11/01 10:38:12;;;;;;;6.05;1.00;;;;;;;15.99;56.98;99852.44;5043543;27;117054;-65
2021/11/01 10:40:54;;;;;;;4.97;1.05;;;;;;;16.02;56.88;99846.84;5043428;27;125358;-65
2021/11/01 10:43:39;;;;;;;3.85;1.10;;;;;;;16.07;56.75;99855.31;5050036;27;124570;-66
2021/11/01 11:17:34;;;;;;;2.30;0.70;;;;;;;16.42;55.78;99862.16;5042561;27;122748;-65
2021/11/01 11:20:26;;;;;;;4.43;1.08;;;;;;;16.44;55.60;99856.69;5048518;27;114709;-68
2021/11/01 11:32:11;;;;;;;2.92;0.70;;;;;;;16.60;55.41;99850.91;5044710;27;114416;-67
2021/11/01 11:42:12;;;;;;;4.25;0.90;;;;;;;16.82;55.07;99832.03;5050225;27;123933;-66
2021/11/01 11:47:02;;;;;;;3.40;0.90;;;;;;;16.89;54.83;99841.19;5038848;27;114472;-66
2021/11/01 11:47:10;;;;;;;4.70;0.90;;;;;;;16.93;54.61;99836.41;5038965;27;114323;-67
2021/11/01 11:49:38;;;;;;;2.80;0.93;;;;;;;16.95;54.54;99836.28;5049433;27;122970;-67
2021/11/01 11:52:11;;;;;;;4.72;1.17;;;;;;;16.93;54.09;99837.28;5045462;27;124660;-66
2021/11/01 11:54:50;;;;;;;7.97;1.30;;;;;;;16.91;53.96;99833.91;5040129;27;114940;-66
2021/11/01 11:57:22;;;;;;;2.95;0.90;;;;;;;16.90;53.94;99832.19;5037237;27;114673;-66
2021/11/01 11:59:53;;;;;;;2.83;0.90;;;;;;;16.89;53.37;99835.84;5045184;27;123002;-66
2021/11/01 12:02:39;;;;;;;5.88;1.10;;;;;;;16.86;53.76;99825.44;5041635;27;124544;-66
2021/11/01 12:05:30;;;;;;;3.97;0.80;;;;;;;16.88;53.88;99834.16;5043304;27;114565;-66
2021/11/01 12:08:22;;;;;;;1.98;0.77;;;;;;;16.93;53.95;99826.59;5051610;27;114908;-66
2021/11/01 12:19:03;;;;;;;3.30;0.82;;;;;;;16.95;53.20;99833.63;5043329;27;114271;-66
2021/11/01 12:21:33;;;;;;;2.13;0.88;;;;;;;16.95;53.46;99830.94;5049602;27;124544;-66
2021/11/01 12:24:01;;;;;;;3.88;0.77;;;;;;;16.93;53.38;99831.94;5048486;27;124700;-66
2021/11/01 12:26:28;;;;;;;3.75;0.93;;;;;;;16.92;53.25;99830.25;5048677;27;114457;-66
2021/11/01 12:29:01;;;;;;;2.15;0.90;;;;;;;16.92;53.14;99830.25;5046770;27;114134;-66
2021/11/01 12:31:30;;;;;;;4.70;0.93;;;;;;;16.93;53.32;99821.25;5049197;27;123958;-66
2021/11/01 12:36:40;;;;;;;3.10;0.98;;;;;;;16.96;53.29;99824.63;5045958;27;114300;-66
2021/11/01 12:39:23;;;;;;;3.28;1.00;;;;;;;17.01;53.30;99827.72;5050459;27;113742;-66
2021/11/01 12:47:40;;;;;;;5.32;0.93;;;;;;;17.09;52.95;99819.88;5038731;27;115079;-66
2021/11/01 12:58:58;;;;;;;4.82;0.93;;;;;;;17.11;53.07;99812.56;5046283;27;114215;-66
2021/11/01 13:01:29;;;;;;;5.22;0.90;;;;;;;17.16;53.01;99810.34;5051904;27;114420;-66
2021/11/01 13:06:53;;;;;;;1.70;0.70;;;;;;;17.23;52.78;99806.09;5050722;27;124768;-67
2021/11/01 13:09:24;;;;;;;2.85;0.90;;;;;;;17.23;52.50;99802.59;5050269;27;114662;-67
2021/11/01 13:20:05;;;;;;;3.30;1.17;;;;;;;17.22;52.14;99804.44;5049053;27;114753;-66
2021/11/01 13:22:43;;;;;;;4.03;0.65;;;;;;;17.20;52.30;99806.38;5052267;27;113865;-66
2021/11/01 13:25:29;;;;;;;3.65;0.80;;;;;;;17.19;52.10;99804.69;5049273;27;123799;-66
2021/11/01 13:28:24;;;;;;;5.18;1.10;;;;;;;17.21;52.15;99797.38;5048351;27;123779;-66
2021/11/01 13:36:41;;;;;;;3.35;0.70;;;;;;;17.27;51.97;99801.31;5054478;27;123231;-66
2021/11/01 13:39:10;;;;;;;2.67;0.80;;;;;;;17.24;51.73;99802.44;5037474;27;124046;-66
2021/11/01 13:41:46;;;;;;;3.53;0.88;;;;;;;17.19;51.60;99799.34;5044984;27;115289;-66
2021/11/01 13:44:22;;;;;;;4.47;0.82;;;;;;;17.12;51.42;99803.53;5048761;27;115189;-66
2021/11/01 13:46:55;;;;;;;6.00;0.75;;;;;;;17.09;51.22;99807.34;5048042;27;124760;-66
2021/11/01 13:49:33;;;;;;;3.00;0.70;;;;;;;17.07;51.16;99817.34;5053226;27;124356;-66
2021/11/01 13:52:36;;;;;;;2.50;1.00;;;;;;;17.06;51.33;99809.44;5053214;27;114990;-66
2021/11/01 13:57:50;;;;;;;3.33;0.80;;;;;;;17.05;51.35;99818.47;5054481;27;124533;-66
2021/11/01 14:13:57;;;;;;;;;;;;;;;16.95;52.04;99822.91;5058045;27;114069;-66
2021/11/01 14:17:18;;;;;;;3.40;0.82;;;;;;;16.99;51.78;99829.69;5039169;27;114009;-66
2021/11/01 14:27:46;;;;;;;3.78;0.82;;;;;;;16.99;51.56;99835.03;5047589;27;114012;-66
2021/11/01 14:30:58;;;;;;;3.60;0.90;;;;;;;16.93;51.58;99826.59;5049302;27;124930;-66
2021/11/01 15:06:57;;;;;;;2.25;0.60;;;;;;;16.72;51.42;99796.34;5046937;27;123900;-66
2021/11/01 15:14:11;;;;;;;3.17;0.95;;;;;;;16.64;51.45;99793.50;5042141;27;123038;-66
2021/11/01 16:19:19;;;;;;;2.90;0.77;;;;;;;15.93;52.13;99804.88;5039360;27;123626;-66
2021/11/01 16:21:47;;;;;;;4.15;0.95;;;;;;;15.92;51.99;99805.88;5049422;27;124199;-65
2021/11/01 16:24:15;;;;;;;2.55;0.77;;;;;;;15.90;51.97;99815.84;5049645;27;115343;-65
2021/11/01 16:26:44;;;;;;;5.68;0.88;;;;;;;15.88;52.13;99801.75;5049733;27;115353;-65
2021/11/01 16:29:16;;;;;;;3.22;0.73;;;;;;;15.86;51.97;99803.69;5044261;27;124581;-65
2021/11/01 16:31:48;;;;;;;3.50;0.80;;;;;;;15.84;52.01;99805.66;5048452;27;123754;-66
2021/11/01 16:34:20;;;;;;;3.03;0.90;;;;;;;15.82;52.07;99807.59;5039483;27;114058;-65
2021/11/01 16:39:27;;;;;;;4.88;0.90;;;;;;;15.76;52.08;99798.28;5038385;27;123945;-65
2021/11/01 16:41:54;;;;;;;2.10;0.63;;;;;;;15.72;52.02;99796.81;5047193;27;123715;-66
2021/11/01 16:44:36;;;;;;;2.20;0.60;;;;;;;15.69;51.92;99808.63;5042953;27;114293;-65
2021/11/01 16:47:04;;;;;;;2.88;0.70;;;;;;;15.66;52.02;99795.50;5051559;27;114363;-65
2021/11/01 16:49:31;;;;;;;3.63;0.98;;;;;;;15.63;52.06;99806.44;5040027;27;122822;-65
2021/11/01 16:52:05;;;;;;;1.58;0.70;;;;;;;15.63;52.15;99809.09;5037819;27;124714;-66
2021/11/01 16:54:35;;;;;;;2.75;0.70;;;;;;;15.62;52.25;99815.44;5039896;27;113947;-66
2021/11/01 16:57:40;;;;;;;2.65;0.80;;;;;;;15.61;52.46;99816.38;5041096;27;114063;-66
2021/11/01 17:24:52;;;;;;;1.90;0.50;;;;;;;14.60;54.17;99857.38;5036124;27;123912;-68
2021/11/01 17:35:44;;;;;;;0.98;0.60;;;;;;;14.36;54.46;99849.44;5036289;27;123115;-68
2021/11/01 18:37:50;;;;;;;3.55;1.70;;;;;;;13.46;57.05;99920.88;5037305;27;113589;-71
2021/11/01 18:51:08;;;;;;;4.18;2.25;;;;;;;13.49;57.37;99907.38;5038261;27;124181;-71
2021/11/01 18:53:42;;;;;;;4.30;2.10;;;;;;;13.48;57.42;99913.66;5041113;27;123723;-71
2021/11/01 18:56:12;;;;;;;4.50;3.33;;;;;;;13.48;57.36;99911.81;5034381;27;114798;-71
2021/11/01 18:58:41;;;;;;;4.28;2.58;;;;;;;13.50;57.61;99914.38;5044504;27;113947;-71
2021/11/01 19:01:11;;;;;;;4.22;2.22;;;;;;;13.49;57.56;99918.03;5046843;27;126268;-75
2021/11/01 19:03:49;;;;;;;3.75;2.10;;;;;;;13.49;57.54;99912.69;5043590;27;123786;-71
2021/11/01 21:25:26;;;;;;;2.88;1.30;;;;;;;12.64;58.86;99911.47;5044044;27;124619;-71
2021/11/01 21:27:53;;;;;;;4.32;1.80;;;;;;;12.62;59.15;99908.06;5047780;27;123972;-71
2021/11/01 21:30:20;;;;;;;4.20;1.98;;;;;;;12.60;59.01;99907.34;5044365;27;114519;-71
2021/11/01 21:32:48;;;;;;;2.75;1.33;;;;;;;12.59;59.24;99907.44;5048954;27;114220;-71
2021/11/01 21:35:18;;;;;;;3.72;1.45;;;;;;;12.56;59.22;99902.31;5041268;27;124147;-72
2021/11/01 21:37:46;;;;;;;3.83;1.75;;;;;;;12.56;59.23;99904.97;5045942;27;123888;-71
2021/11/01 21:40:14;;;;;;;3.75;1.90;;;;;;;12.53;59.16;99907.88;5045571;27;115390;-72
2021/11/01 21:42:42;;;;;;;3.65;1.67;;;;;;;12.50;59.13;99898.28;5047689;27;113798;-71
2021/11/01 21:45:10;;;;;;;4.18;1.92;;;;;;;12.49;59.35;99901.91;5045786;27;124205;-71
2021/11/01 21:47:39;;;;;;;3.75;1.52;;;;;;;12.46;59.10;99902.09;5045405;27;123659;-71
2021/11/01 21:50:06;;;;;;;5.95;1.90;;;;;;;12.44;59.34;99898.69;5043919;27;115028;-71
2021/11/01 21:52:57;;;;;;;3.70;1.60;;;;;;;12.41;59.26;99898.91;5042701;27;115149;-71
2021/11/01 21:55:25;;;;;;;2.33;1.42;;;;;;;12.39;59.30;99895.50;5043691;27;124064;-71
2021/11/01 21:58:02;;;;;;;7.22;1.77;;;;;;;12.34;59.25;99892.31;5032316;27;123801;-71
2021/11/01 22:47:37;;;;;;;8.07;2.10;;;;;;;11.95;59.28;99870.16;5046505;27;115054;-71
2021/11/01 22:57:40;;;;;;;4.35;1.60;;;;;;;11.79;59.13;99876.44;5044860;27;114166;-72
2021/11/01 23:00:28;;;;;;;3.35;1.40;;;;;;;11.76;59.15;99875.78;5049547;27;124323;-71
2021/11/01 23:03:01;;;;;;;4.57;1.60;;;;;;;11.71;59.19;99876.06;5048645;27;124613;-71
2021/11/01 23:05:43;;;;;;;3.25;1.65;;;;;;;11.69;59.47;99885.94;5046456;27;114519;-71
2021/11/01 23:33:04;;;;;;;6.38;1.90;;;;;;;11.29;59.45;99888.50;5039994;27;124424;-72
2021/11/01 23:35:31;;;;;;;4.07;1.83;;;;;;;11.26;59.52;99888.69;5045891;27;123038;-71
2021/11/01 23:37:59;;;;;;;4.90;1.70;;;;;;;11.21;59.71;99886.34;5042880;27;115129;-71
2021/11/01 23:40:26;;;;;;;4.32;1.60;;;;;;;11.18;59.59;99885.69;5045759;27;114962;-71
2021/11/01 23:42:53;;;;;;;4.15;1.80;;;;;;;11.16;59.38;99884.94;5050245;27;124399;-71
2021/11/01 23:45:20;;;;;;;3.72;1.58;;;;;;;11.14;59.46;99889.47;5051274;27;123913;-71
2021/11/01 23:47:47;;;;;;;3.17;1.70;;;;;;;11.12;59.51;99891.38;5048151;27;114655;-71
2021/11/01 23:50:14;;;;;;;3.10;1.70;;;;;;;11.09;59.61;99890.63;5046083;27;114008;-71
2021/11/01 23:52:54;;;;;;;4.60;1.70;;;;;;;11.07;59.33;99889.84;5051309;27;124514;-71
2021/11/01 23:55:21;;;;;;;3.35;1.73;;;;;;;11.03;59.73;99887.50;5049928;27;124558;-71
2021/11/01 23:57:48;;;;;;;4.53;1.90;;;;;;;11.01;59.85;99884.94;5047822;27;114247;-71
